sensor_id;sensor_type;location;lat;lon;timestamp;temperature;humidity
49489;SHT31;35382;51.484;11.476;2023-02-28T00:00:15;0.06;72.95
49489;SHT31;35382;51.484;11.476;2023-02-28T00:01:56;-0.14;74.31
49489;SHT31;35382;51.484;11.476;2023-02-28T00:03:37;-0.05;74.01
49489;SHT31;35382;51.484;11.476;2023-02-28T00:05:20;-0.07;73.71
49489;SHT31;35382;51.484;11.476;2023-02-28T00:07:01;0.10;73.37
49489;SHT31;35382;51.484;11.476;2023-02-28T00:08:42;0.05;73.60
49489;SHT31;35382;51.484;11.476;2023-02-28T00:10:29;0.06;73.59
49489;SHT31;35382;51.484;11.476;2023-02-28T00:12:10;-0.04;73.77
49489;SHT31;35382;51.484;11.476;2023-02-28T00:13:51;-0.01;73.44
49489;SHT31;35382;51.484;11.476;2023-02-28T00:15:33;0.06;73.50
49489;SHT31;35382;51.484;11.476;2023-02-28T00:17:14;-0.01;73.82
49489;SHT31;35382;51.484;11.476;2023-02-28T00:18:55;-0.13;74.41
49489;SHT31;35382;51.484;11.476;2023-02-28T00:20:36;-0.08;74.54
49489;SHT31;35382;51.484;11.476;2023-02-28T00:22:18;-0.14;74.48
49489;SHT31;35382;51.484;11.476;2023-02-28T00:23:59;-0.10;74.51
49489;SHT31;35382;51.484;11.476;2023-02-28T00:25:40;-0.01;73.73
49489;SHT31;35382;51.484;11.476;2023-02-28T00:27:22;0.00;74.27
49489;SHT31;35382;51.484;11.476;2023-02-28T00:29:03;-0.01;74.16
49489;SHT31;35382;51.484;11.476;2023-02-28T00:30:43;-0.13;74.44
49489;SHT31;35382;51.484;11.476;2023-02-28T00:32:24;0.02;74.05
49489;SHT31;35382;51.484;11.476;2023-02-28T00:34:08;-0.04;73.83
49489;SHT31;35382;51.484;11.476;2023-02-28T00:35:49;-0.03;74.07
49489;SHT31;35382;51.484;11.476;2023-02-28T00:37:29;-0.18;75.18
49489;SHT31;35382;51.484;11.476;2023-02-28T00:39:11;-0.14;75.23
49489;SHT31;35382;51.484;11.476;2023-02-28T00:40:52;-0.17;74.69
49489;SHT31;35382;51.484;11.476;2023-02-28T00:42:36;-0.08;74.39
49489;SHT31;35382;51.484;11.476;2023-02-28T00:44:20;-0.08;73.99
49489;SHT31;35382;51.484;11.476;2023-02-28T00:46:02;0.00;73.78
49489;SHT31;35382;51.484;11.476;2023-02-28T00:47:44;-0.19;73.94
49489;SHT31;35382;51.484;11.476;2023-02-28T00:49:27;-0.13;75.16
49489;SHT31;35382;51.484;11.476;2023-02-28T00:51:08;-0.18;75.12
49489;SHT31;35382;51.484;11.476;2023-02-28T00:52:49;0.03;73.54
49489;SHT31;35382;51.484;11.476;2023-02-28T00:54:30;0.03;74.49
49489;SHT31;35382;51.484;11.476;2023-02-28T00:56:11;-0.19;75.19
49489;SHT31;35382;51.484;11.476;2023-02-28T00:57:52;-0.25;75.52
49489;SHT31;35382;51.484;11.476;2023-02-28T00:59:33;-0.25;75.94
49489;SHT31;35382;51.484;11.476;2023-02-28T01:01:14;-0.17;75.48
49489;SHT31;35382;51.484;11.476;2023-02-28T01:02:55;-0.17;75.14
49489;SHT31;35382;51.484;11.476;2023-02-28T01:04:37;-0.27;75.55
49489;SHT31;35382;51.484;11.476;2023-02-28T01:06:18;-0.14;74.80
49489;SHT31;35382;51.484;11.476;2023-02-28T01:07:58;-0.13;75.19
49489;SHT31;35382;51.484;11.476;2023-02-28T01:09:40;-0.15;75.15
49489;SHT31;35382;51.484;11.476;2023-02-28T01:11:21;-0.14;75.26
49489;SHT31;35382;51.484;11.476;2023-02-28T01:13:02;-0.25;75.68
49489;SHT31;35382;51.484;11.476;2023-02-28T01:14:43;-0.29;76.39
49489;SHT31;35382;51.484;11.476;2023-02-28T01:16:25;-0.41;77.17
49489;SHT31;35382;51.484;11.476;2023-02-28T01:18:06;-0.41;77.33
49489;SHT31;35382;51.484;11.476;2023-02-28T01:19:47;-0.37;77.48
49489;SHT31;35382;51.484;11.476;2023-02-28T01:21:28;-0.28;77.52
49489;SHT31;35382;51.484;11.476;2023-02-28T01:23:10;-0.14;77.00
49489;SHT31;35382;51.484;11.476;2023-02-28T01:24:51;-0.24;76.52
49489;SHT31;35382;51.484;11.476;2023-02-28T01:26:32;-0.21;76.35
49489;SHT31;35382;51.484;11.476;2023-02-28T01:28:13;-0.10;75.85
49489;SHT31;35382;51.484;11.476;2023-02-28T01:29:54;-0.24;75.76
49489;SHT31;35382;51.484;11.476;2023-02-28T01:31:35;-0.28;76.53
49489;SHT31;35382;51.484;11.476;2023-02-28T01:33:16;-0.32;76.56
49489;SHT31;35382;51.484;11.476;2023-02-28T01:34:57;-0.29;76.16
49489;SHT31;35382;51.484;11.476;2023-02-28T01:36:38;-0.27;75.74
49489;SHT31;35382;51.484;11.476;2023-02-28T01:38:19;-0.17;76.34
49489;SHT31;35382;51.484;11.476;2023-02-28T01:39:59;-0.21;75.68
49489;SHT31;35382;51.484;11.476;2023-02-28T01:41:40;-0.28;76.02
49489;SHT31;35382;51.484;11.476;2023-02-28T01:45:25;-0.01;75.20
49489;SHT31;35382;51.484;11.476;2023-02-28T01:47:06;-0.21;76.24
49489;SHT31;35382;51.484;11.476;2023-02-28T01:48:54;-0.27;76.74
49489;SHT31;35382;51.484;11.476;2023-02-28T01:50:42;-0.39;77.05
49489;SHT31;35382;51.484;11.476;2023-02-28T01:52:26;-0.41;77.94
49489;SHT31;35382;51.484;11.476;2023-02-28T01:54:11;-0.44;77.43
49489;SHT31;35382;51.484;11.476;2023-02-28T01:55:54;-0.32;76.79
49489;SHT31;35382;51.484;11.476;2023-02-28T01:57:38;-0.39;76.86
49489;SHT31;35382;51.484;11.476;2023-02-28T01:59:35;-0.11;76.03
49489;SHT31;35382;51.484;11.476;2023-02-28T02:01:21;-0.37;76.73
49489;SHT31;35382;51.484;11.476;2023-02-28T02:03:11;-0.39;77.22
49489;SHT31;35382;51.484;11.476;2023-02-28T02:05:08;-0.32;77.48
49489;SHT31;35382;51.484;11.476;2023-02-28T02:06:49;-0.35;76.71
49489;SHT31;35382;51.484;11.476;2023-02-28T02:08:30;-0.27;75.96
49489;SHT31;35382;51.484;11.476;2023-02-28T02:12:00;-0.27;76.77
49489;SHT31;35382;51.484;11.476;2023-02-28T02:17:58;-0.35;77.06
49489;SHT31;35382;51.484;11.476;2023-02-28T02:24:47;-0.21;76.68
49489;SHT31;35382;51.484;11.476;2023-02-28T02:30:58;-0.28;76.10
49489;SHT31;35382;51.484;11.476;2023-02-28T02:33:02;-0.37;77.54
49489;SHT31;35382;51.484;11.476;2023-02-28T02:36:42;-0.34;77.71
49489;SHT31;35382;51.484;11.476;2023-02-28T02:38:49;-0.31;77.01
49489;SHT31;35382;51.484;11.476;2023-02-28T02:40:43;-0.28;77.69
49489;SHT31;35382;51.484;11.476;2023-02-28T02:42:44;-0.31;77.59
49489;SHT31;35382;51.484;11.476;2023-02-28T02:44:45;-0.31;78.32
49489;SHT31;35382;51.484;11.476;2023-02-28T02:46:38;-0.38;77.41
49489;SHT31;35382;51.484;11.476;2023-02-28T02:48:30;-0.25;77.07
49489;SHT31;35382;51.484;11.476;2023-02-28T02:50:20;-0.41;78.25
49489;SHT31;35382;51.484;11.476;2023-02-28T02:52:06;-0.52;78.60
49489;SHT31;35382;51.484;11.476;2023-02-28T02:54:01;-0.61;78.83
49489;SHT31;35382;51.484;11.476;2023-02-28T02:55:44;-0.66;78.61
49489;SHT31;35382;51.484;11.476;2023-02-28T02:57:32;-0.61;78.67
49489;SHT31;35382;51.484;11.476;2023-02-28T02:59:19;-0.73;79.31
49489;SHT31;35382;51.484;11.476;2023-02-28T03:01:03;-0.78;79.91
49489;SHT31;35382;51.484;11.476;2023-02-28T03:02:46;-0.91;80.25
49489;SHT31;35382;51.484;11.476;2023-02-28T03:04:32;-0.89;80.51
49489;SHT31;35382;51.484;11.476;2023-02-28T03:06:14;-0.86;80.41
49489;SHT31;35382;51.484;11.476;2023-02-28T03:07:55;-0.82;79.71
49489;SHT31;35382;51.484;11.476;2023-02-28T03:09:36;-0.85;80.19
49489;SHT31;35382;51.484;11.476;2023-02-28T03:11:17;-0.78;79.37
49489;SHT31;35382;51.484;11.476;2023-02-28T03:15:09;-0.99;80.39
49489;SHT31;35382;51.484;11.476;2023-02-28T03:21:00;-0.95;80.48
49489;SHT31;35382;51.484;11.476;2023-02-28T03:22:51;-0.93;80.00
49489;SHT31;35382;51.484;11.476;2023-02-28T03:26:29;-0.91;80.85
49489;SHT31;35382;51.484;11.476;2023-02-28T03:28:35;-0.99;80.41
49489;SHT31;35382;51.484;11.476;2023-02-28T03:31:12;-1.09;80.68
49489;SHT31;35382;51.484;11.476;2023-02-28T03:33:12;-1.02;80.51
49489;SHT31;35382;51.484;11.476;2023-02-28T03:35:14;-1.05;81.10
49489;SHT31;35382;51.484;11.476;2023-02-28T03:37:05;-0.91;80.79
49489;SHT31;35382;51.484;11.476;2023-02-28T03:39:02;-0.95;80.61
49489;SHT31;35382;51.484;11.476;2023-02-28T03:40:50;-1.09;80.77
49489;SHT31;35382;51.484;11.476;2023-02-28T03:42:34;-1.12;80.98
49489;SHT31;35382;51.484;11.476;2023-02-28T03:44:21;-0.96;81.04
49489;SHT31;35382;51.484;11.476;2023-02-28T03:46:07;-1.03;81.28
49489;SHT31;35382;51.484;11.476;2023-02-28T03:47:58;-0.97;81.45
49489;SHT31;35382;51.484;11.476;2023-02-28T03:50:08;-1.09;81.70
49489;SHT31;35382;51.484;11.476;2023-02-28T03:51:52;-0.97;81.06
49489;SHT31;35382;51.484;11.476;2023-02-28T03:53:41;-1.05;80.88
49489;SHT31;35382;51.484;11.476;2023-02-28T03:55:23;-1.09;81.12
49489;SHT31;35382;51.484;11.476;2023-02-28T03:57:26;-1.06;81.13
49489;SHT31;35382;51.484;11.476;2023-02-28T03:59:24;-1.03;81.19
49489;SHT31;35382;51.484;11.476;2023-02-28T04:01:13;-0.95;80.51
49489;SHT31;35382;51.484;11.476;2023-02-28T04:02:55;-1.03;80.84
49489;SHT31;35382;51.484;11.476;2023-02-28T04:04:36;-0.97;80.45
49489;SHT31;35382;51.484;11.476;2023-02-28T04:06:20;-1.10;81.11
49489;SHT31;35382;51.484;11.476;2023-02-28T04:08:10;-1.12;80.99
49489;SHT31;35382;51.484;11.476;2023-02-28T04:09:51;-1.19;81.47
49489;SHT31;35382;51.484;11.476;2023-02-28T04:11:45;-1.27;81.61
49489;SHT31;35382;51.484;11.476;2023-02-28T04:13:29;-1.23;81.54
49489;SHT31;35382;51.484;11.476;2023-02-28T04:15:10;-1.13;81.07
49489;SHT31;35382;51.484;11.476;2023-02-28T04:16:52;-1.35;81.92
49489;SHT31;35382;51.484;11.476;2023-02-28T04:18:33;-1.36;81.96
49489;SHT31;35382;51.484;11.476;2023-02-28T04:20:14;-1.42;82.04
49489;SHT31;35382;51.484;11.476;2023-02-28T04:21:55;-1.47;82.36
49489;SHT31;35382;51.484;11.476;2023-02-28T04:23:35;-1.47;82.25
49489;SHT31;35382;51.484;11.476;2023-02-28T04:25:16;-1.54;82.24
49489;SHT31;35382;51.484;11.476;2023-02-28T04:26:57;-1.44;81.79
49489;SHT31;35382;51.484;11.476;2023-02-28T04:28:38;-1.33;81.46
49489;SHT31;35382;51.484;11.476;2023-02-28T04:30:19;-1.42;81.67
49489;SHT31;35382;51.484;11.476;2023-02-28T04:32:01;-1.42;81.98
49489;SHT31;35382;51.484;11.476;2023-02-28T04:33:42;-1.54;82.85
49489;SHT31;35382;51.484;11.476;2023-02-28T04:35:23;-1.25;81.56
49489;SHT31;35382;51.484;11.476;2023-02-28T04:37:06;-1.27;80.86
49489;SHT31;35382;51.484;11.476;2023-02-28T04:38:47;-1.46;81.71
49489;SHT31;35382;51.484;11.476;2023-02-28T04:40:28;-1.49;81.92
49489;SHT31;35382;51.484;11.476;2023-02-28T04:42:09;-1.57;82.30
49489;SHT31;35382;51.484;11.476;2023-02-28T04:43:51;-1.62;82.61
49489;SHT31;35382;51.484;11.476;2023-02-28T04:45:33;-1.53;82.47
49489;SHT31;35382;51.484;11.476;2023-02-28T04:47:15;-1.42;82.01
49489;SHT31;35382;51.484;11.476;2023-02-28T04:48:58;-1.54;82.14
49489;SHT31;35382;51.484;11.476;2023-02-28T04:50:39;-1.70;82.80
49489;SHT31;35382;51.484;11.476;2023-02-28T04:52:20;-1.75;82.96
49489;SHT31;35382;51.484;11.476;2023-02-28T04:54:01;-1.85;82.96
49489;SHT31;35382;51.484;11.476;2023-02-28T04:55:42;-1.93;82.87
49489;SHT31;35382;51.484;11.476;2023-02-28T04:57:23;-1.66;82.23
49489;SHT31;35382;51.484;11.476;2023-02-28T04:59:04;-1.73;82.08
49489;SHT31;35382;51.484;11.476;2023-02-28T05:00:45;-1.71;82.05
49489;SHT31;35382;51.484;11.476;2023-02-28T05:02:26;-1.68;82.35
49489;SHT31;35382;51.484;11.476;2023-02-28T05:04:08;-1.88;82.83
49489;SHT31;35382;51.484;11.476;2023-02-28T05:05:49;-1.94;83.53
49489;SHT31;35382;51.484;11.476;2023-02-28T05:07:30;-2.02;83.98
49489;SHT31;35382;51.484;11.476;2023-02-28T05:09:11;-2.02;84.02
49489;SHT31;35382;51.484;11.476;2023-02-28T05:10:55;-2.18;84.34
49489;SHT31;35382;51.484;11.476;2023-02-28T05:12:36;-1.88;82.45
49489;SHT31;35382;51.484;11.476;2023-02-28T05:14:16;-1.60;81.61
49489;SHT31;35382;51.484;11.476;2023-02-28T05:15:57;-1.74;82.32
49489;SHT31;35382;51.484;11.476;2023-02-28T05:17:38;-1.74;82.11
49489;SHT31;35382;51.484;11.476;2023-02-28T05:19:19;-1.90;82.44
49489;SHT31;35382;51.484;11.476;2023-02-28T05:21:01;-2.01;83.04
49489;SHT31;35382;51.484;11.476;2023-02-28T05:22:45;-2.04;83.53
49489;SHT31;35382;51.484;11.476;2023-02-28T05:24:26;-1.90;81.97
49489;SHT31;35382;51.484;11.476;2023-02-28T05:26:07;-1.99;82.69
49489;SHT31;35382;51.484;11.476;2023-02-28T05:27:48;-1.85;82.12
49489;SHT31;35382;51.484;11.476;2023-02-28T05:29:29;-1.97;82.49
49489;SHT31;35382;51.484;11.476;2023-02-28T05:31:10;-2.09;82.54
49489;SHT31;35382;51.484;11.476;2023-02-28T05:32:51;-2.17;82.80
49489;SHT31;35382;51.484;11.476;2023-02-28T05:34:32;-2.17;82.92
49489;SHT31;35382;51.484;11.476;2023-02-28T05:36:14;-2.27;83.47
49489;SHT31;35382;51.484;11.476;2023-02-28T05:37:55;-2.08;83.38
49489;SHT31;35382;51.484;11.476;2023-02-28T05:39:36;-1.97;82.70
49489;SHT31;35382;51.484;11.476;2023-02-28T05:41:18;-1.93;82.75
49489;SHT31;35382;51.484;11.476;2023-02-28T05:43:00;-2.02;82.78
49489;SHT31;35382;51.484;11.476;2023-02-28T05:44:43;-2.24;83.39
49489;SHT31;35382;51.484;11.476;2023-02-28T05:46:24;-2.18;83.62
49489;SHT31;35382;51.484;11.476;2023-02-28T05:48:05;-2.27;83.69
49489;SHT31;35382;51.484;11.476;2023-02-28T05:49:46;-2.19;83.68
49489;SHT31;35382;51.484;11.476;2023-02-28T05:51:27;-2.25;83.37
49489;SHT31;35382;51.484;11.476;2023-02-28T05:53:08;-2.18;83.19
49489;SHT31;35382;51.484;11.476;2023-02-28T05:54:49;-2.05;83.01
49489;SHT31;35382;51.484;11.476;2023-02-28T05:56:30;-2.18;83.13
49489;SHT31;35382;51.484;11.476;2023-02-28T05:58:11;-2.40;83.99
49489;SHT31;35382;51.484;11.476;2023-02-28T05:59:52;-2.25;84.02
49489;SHT31;35382;51.484;11.476;2023-02-28T06:03:16;-2.19;83.93
49489;SHT31;35382;51.484;11.476;2023-02-28T06:04:57;-2.21;83.86
49489;SHT31;35382;51.484;11.476;2023-02-28T06:06:37;-2.28;83.81
49489;SHT31;35382;51.484;11.476;2023-02-28T06:08:20;-2.27;83.99
49489;SHT31;35382;51.484;11.476;2023-02-28T06:10:01;-2.27;83.97
49489;SHT31;35382;51.484;11.476;2023-02-28T06:11:42;-2.38;84.56
49489;SHT31;35382;51.484;11.476;2023-02-28T06:13:23;-2.49;84.94
49489;SHT31;35382;51.484;11.476;2023-02-28T06:15:05;-2.38;84.95
49489;SHT31;35382;51.484;11.476;2023-02-28T06:16:50;-2.41;84.70
49489;SHT31;35382;51.484;11.476;2023-02-28T06:18:31;-2.46;85.14
49489;SHT31;35382;51.484;11.476;2023-02-28T06:20:12;-2.56;85.14
49489;SHT31;35382;51.484;11.476;2023-02-28T06:21:54;-2.56;85.22
49489;SHT31;35382;51.484;11.476;2023-02-28T06:23:35;-2.55;84.94
49489;SHT31;35382;51.484;11.476;2023-02-28T06:25:16;-2.55;85.47
49489;SHT31;35382;51.484;11.476;2023-02-28T06:26:57;-2.52;85.67
49489;SHT31;35382;51.484;11.476;2023-02-28T06:28:45;-2.58;85.40
49489;SHT31;35382;51.484;11.476;2023-02-28T06:30:26;-2.48;85.47
49489;SHT31;35382;51.484;11.476;2023-02-28T06:32:10;-2.51;85.24
49489;SHT31;35382;51.484;11.476;2023-02-28T06:33:51;-2.42;85.17
49489;SHT31;35382;51.484;11.476;2023-02-28T06:35:32;-2.45;85.41
49489;SHT31;35382;51.484;11.476;2023-02-28T06:37:13;-2.42;85.35
49489;SHT31;35382;51.484;11.476;2023-02-28T06:38:54;-2.41;85.32
49489;SHT31;35382;51.484;11.476;2023-02-28T06:40:37;-2.30;85.02
49489;SHT31;35382;51.484;11.476;2023-02-28T06:42:18;-2.27;84.53
49489;SHT31;35382;51.484;11.476;2023-02-28T06:44:01;-2.24;84.36
49489;SHT31;35382;51.484;11.476;2023-02-28T06:45:43;-2.14;83.74
49489;SHT31;35382;51.484;11.476;2023-02-28T06:47:24;-2.11;83.84
49489;SHT31;35382;51.484;11.476;2023-02-28T06:49:05;-2.12;83.67
49489;SHT31;35382;51.484;11.476;2023-02-28T06:50:49;-1.98;83.29
49489;SHT31;35382;51.484;11.476;2023-02-28T06:52:30;-1.67;82.46
49489;SHT31;35382;51.484;11.476;2023-02-28T06:54:12;-1.67;82.54
49489;SHT31;35382;51.484;11.476;2023-02-28T06:55:53;-1.74;82.58
49489;SHT31;35382;51.484;11.476;2023-02-28T06:57:34;-1.85;83.15
49489;SHT31;35382;51.484;11.476;2023-02-28T06:59:16;-1.71;82.51
49489;SHT31;35382;51.484;11.476;2023-02-28T07:00:58;-1.71;82.74
49489;SHT31;35382;51.484;11.476;2023-02-28T07:02:39;-1.78;83.11
49489;SHT31;35382;51.484;11.476;2023-02-28T07:04:21;-1.62;82.70
49489;SHT31;35382;51.484;11.476;2023-02-28T07:06:02;-1.63;82.24
49489;SHT31;35382;51.484;11.476;2023-02-28T07:07:44;-1.67;82.72
49489;SHT31;35382;51.484;11.476;2023-02-28T07:09:27;-1.56;82.10
49489;SHT31;35382;51.484;11.476;2023-02-28T07:11:10;-1.57;82.52
49489;SHT31;35382;51.484;11.476;2023-02-28T07:12:52;-1.57;82.35
49489;SHT31;35382;51.484;11.476;2023-02-28T07:14:33;-1.51;81.74
49489;SHT31;35382;51.484;11.476;2023-02-28T07:16:16;-1.50;82.07
49489;SHT31;35382;51.484;11.476;2023-02-28T07:17:57;-1.50;82.30
49489;SHT31;35382;51.484;11.476;2023-02-28T07:19:41;-1.44;82.15
49489;SHT31;35382;51.484;11.476;2023-02-28T07:21:22;-1.29;82.26
49489;SHT31;35382;51.484;11.476;2023-02-28T07:23:03;-1.26;81.89
49489;SHT31;35382;51.484;11.476;2023-02-28T07:24:44;-1.13;81.16
49489;SHT31;35382;51.484;11.476;2023-02-28T07:26:26;-1.07;81.77
49489;SHT31;35382;51.484;11.476;2023-02-28T07:28:07;-1.03;81.34
49489;SHT31;35382;51.484;11.476;2023-02-28T07:29:52;-0.92;80.38
49489;SHT31;35382;51.484;11.476;2023-02-28T07:31:36;-0.96;80.40
49489;SHT31;35382;51.484;11.476;2023-02-28T07:33:17;-0.88;79.84
49489;SHT31;35382;51.484;11.476;2023-02-28T07:34:58;-0.78;79.93
49489;SHT31;35382;51.484;11.476;2023-02-28T07:36:39;-0.79;80.63
49489;SHT31;35382;51.484;11.476;2023-02-28T07:38:20;-0.78;80.16
49489;SHT31;35382;51.484;11.476;2023-02-28T07:40:05;-0.79;79.79
49489;SHT31;35382;51.484;11.476;2023-02-28T07:41:48;-0.58;79.10
49489;SHT31;35382;51.484;11.476;2023-02-28T07:43:29;-0.55;78.22
49489;SHT31;35382;51.484;11.476;2023-02-28T07:45:10;-0.45;77.43
49489;SHT31;35382;51.484;11.476;2023-02-28T07:46:52;-0.24;77.36
49489;SHT31;35382;51.484;11.476;2023-02-28T07:48:34;-0.13;77.82
49489;SHT31;35382;51.484;11.476;2023-02-28T07:50:16;-0.14;78.11
49489;SHT31;35382;51.484;11.476;2023-02-28T07:51:59;-0.08;77.50
49489;SHT31;35382;51.484;11.476;2023-02-28T07:53:40;0.14;75.63
49489;SHT31;35382;51.484;11.476;2023-02-28T07:55:21;0.21;75.75
49489;SHT31;35382;51.484;11.476;2023-02-28T07:57:02;0.37;75.55
49489;SHT31;35382;51.484;11.476;2023-02-28T07:58:43;0.54;74.69
49489;SHT31;35382;51.484;11.476;2023-02-28T08:00:24;0.68;73.99
49489;SHT31;35382;51.484;11.476;2023-02-28T08:02:05;0.94;73.01
49489;SHT31;35382;51.484;11.476;2023-02-28T08:03:46;1.11;71.78
49489;SHT31;35382;51.484;11.476;2023-02-28T08:05:27;1.14;72.87
49489;SHT31;35382;51.484;11.476;2023-02-28T08:07:08;1.22;72.24
49489;SHT31;35382;51.484;11.476;2023-02-28T08:08:50;1.31;72.34
49489;SHT31;35382;51.484;11.476;2023-02-28T08:10:31;1.49;70.74
49489;SHT31;35382;51.484;11.476;2023-02-28T08:12:12;1.73;69.62
49489;SHT31;35382;51.484;11.476;2023-02-28T08:13:54;1.76;68.94
49489;SHT31;35382;51.484;11.476;2023-02-28T08:15:35;1.66;69.20
49489;SHT31;35382;51.484;11.476;2023-02-28T08:17:16;1.86;68.65
49489;SHT31;35382;51.484;11.476;2023-02-28T08:18:57;1.92;68.05
49489;SHT31;35382;51.484;11.476;2023-02-28T08:20:38;1.92;68.94
49489;SHT31;35382;51.484;11.476;2023-02-28T08:22:19;2.16;68.21
49489;SHT31;35382;51.484;11.476;2023-02-28T08:24:00;2.43;67.36
49489;SHT31;35382;51.484;11.476;2023-02-28T08:25:41;2.40;66.46
49489;SHT31;35382;51.484;11.476;2023-02-28T08:27:22;2.37;65.70
49489;SHT31;35382;51.484;11.476;2023-02-28T08:29:03;2.65;64.90
49489;SHT31;35382;51.484;11.476;2023-02-28T08:30:44;2.73;64.79
49489;SHT31;35382;51.484;11.476;2023-02-28T08:32:25;2.58;63.72
49489;SHT31;35382;51.484;11.476;2023-02-28T08:34:07;2.23;63.02
49489;SHT31;35382;51.484;11.476;2023-02-28T08:35:48;2.16;64.27
49489;SHT31;35382;51.484;11.476;2023-02-28T08:37:29;2.21;64.07
49489;SHT31;35382;51.484;11.476;2023-02-28T08:39:10;2.10;64.49
49489;SHT31;35382;51.484;11.476;2023-02-28T08:40:59;1.99;64.32
49489;SHT31;35382;51.484;11.476;2023-02-28T08:42:40;2.37;63.94
49489;SHT31;35382;51.484;11.476;2023-02-28T08:44:21;2.61;62.31
49489;SHT31;35382;51.484;11.476;2023-02-28T08:46:02;2.58;62.28
49489;SHT31;35382;51.484;11.476;2023-02-28T08:47:44;2.57;61.00
49489;SHT31;35382;51.484;11.476;2023-02-28T08:49:25;2.61;61.63
49489;SHT31;35382;51.484;11.476;2023-02-28T08:51:08;2.47;61.37
49489;SHT31;35382;51.484;11.476;2023-02-28T08:52:49;2.54;62.10
49489;SHT31;35382;51.484;11.476;2023-02-28T08:54:30;2.51;62.09
49489;SHT31;35382;51.484;11.476;2023-02-28T08:56:14;2.64;60.86
49489;SHT31;35382;51.484;11.476;2023-02-28T08:57:57;2.89;61.62
49489;SHT31;35382;51.484;11.476;2023-02-28T08:59:39;2.85;61.04
49489;SHT31;35382;51.484;11.476;2023-02-28T09:01:22;3.09;61.78
49489;SHT31;35382;51.484;11.476;2023-02-28T09:03:03;2.64;60.34
49489;SHT31;35382;51.484;11.476;2023-02-28T09:04:44;2.41;59.95
49489;SHT31;35382;51.484;11.476;2023-02-28T09:06:28;2.57;60.58
49489;SHT31;35382;51.484;11.476;2023-02-28T09:08:09;2.74;59.79
49489;SHT31;35382;51.484;11.476;2023-02-28T09:09:51;2.94;60.78
49489;SHT31;35382;51.484;11.476;2023-02-28T09:11:36;3.02;60.29
49489;SHT31;35382;51.484;11.476;2023-02-28T09:13:17;2.78;58.76
49489;SHT31;35382;51.484;11.476;2023-02-28T09:14:58;2.68;59.63
49489;SHT31;35382;51.484;11.476;2023-02-28T09:16:39;2.77;59.32
49489;SHT31;35382;51.484;11.476;2023-02-28T09:18:20;2.99;60.09
49489;SHT31;35382;51.484;11.476;2023-02-28T09:20:01;2.64;59.24
49489;SHT31;35382;51.484;11.476;2023-02-28T09:21:42;2.61;59.79
49489;SHT31;35382;51.484;11.476;2023-02-28T09:23:24;2.78;60.37
49489;SHT31;35382;51.484;11.476;2023-02-28T09:25:05;2.78;59.79
49489;SHT31;35382;51.484;11.476;2023-02-28T09:26:46;2.65;59.14
49489;SHT31;35382;51.484;11.476;2023-02-28T09:28:27;2.83;60.03
49489;SHT31;35382;51.484;11.476;2023-02-28T09:30:10;2.83;59.15
49489;SHT31;35382;51.484;11.476;2023-02-28T09:31:51;2.67;58.32
49489;SHT31;35382;51.484;11.476;2023-02-28T09:33:32;2.75;58.77
49489;SHT31;35382;51.484;11.476;2023-02-28T09:35:15;2.68;57.60
49489;SHT31;35382;51.484;11.476;2023-02-28T09:36:56;2.95;58.47
49489;SHT31;35382;51.484;11.476;2023-02-28T09:38:38;2.94;57.99
49489;SHT31;35382;51.484;11.476;2023-02-28T09:40:20;3.02;58.14
49489;SHT31;35382;51.484;11.476;2023-02-28T09:42:05;3.19;56.87
49489;SHT31;35382;51.484;11.476;2023-02-28T09:43:50;3.40;57.42
49489;SHT31;35382;51.484;11.476;2023-02-28T09:45:36;3.48;56.33
49489;SHT31;35382;51.484;11.476;2023-02-28T09:49:16;3.46;57.65
49489;SHT31;35382;51.484;11.476;2023-02-28T09:51:05;3.48;55.36
49489;SHT31;35382;51.484;11.476;2023-02-28T09:52:50;3.58;55.36
49489;SHT31;35382;51.484;11.476;2023-02-28T09:54:32;3.73;55.15
49489;SHT31;35382;51.484;11.476;2023-02-28T09:56:37;3.77;54.71
49489;SHT31;35382;51.484;11.476;2023-02-28T10:00:19;3.62;55.20
49489;SHT31;35382;51.484;11.476;2023-02-28T10:02:41;3.89;52.86
49489;SHT31;35382;51.484;11.476;2023-02-28T10:04:33;3.93;53.66
49489;SHT31;35382;51.484;11.476;2023-02-28T10:06:20;4.20;54.56
49489;SHT31;35382;51.484;11.476;2023-02-28T10:08:16;4.25;51.51
49489;SHT31;35382;51.484;11.476;2023-02-28T10:09:59;3.93;51.64
49489;SHT31;35382;51.484;11.476;2023-02-28T10:11:44;4.23;53.20
49489;SHT31;35382;51.484;11.476;2023-02-28T10:15:32;3.94;53.06
49489;SHT31;35382;51.484;11.476;2023-02-28T10:17:19;3.29;53.55
49489;SHT31;35382;51.484;11.476;2023-02-28T10:19:11;2.92;53.71
49489;SHT31;35382;51.484;11.476;2023-02-28T10:20:55;3.25;54.76
49489;SHT31;35382;51.484;11.476;2023-02-28T10:22:53;3.29;55.11
49489;SHT31;35382;51.484;11.476;2023-02-28T10:24:41;3.19;53.77
49489;SHT31;35382;51.484;11.476;2023-02-28T10:26:26;3.31;53.77
49489;SHT31;35382;51.484;11.476;2023-02-28T10:28:13;3.22;53.80
49489;SHT31;35382;51.484;11.476;2023-02-28T10:29:56;3.42;53.40
49489;SHT31;35382;51.484;11.476;2023-02-28T10:31:38;2.84;54.62
49489;SHT31;35382;51.484;11.476;2023-02-28T10:33:32;2.36;55.78
49489;SHT31;35382;51.484;11.476;2023-02-28T10:36:58;2.75;55.71
49489;SHT31;35382;51.484;11.476;2023-02-28T10:38:48;3.05;53.83
49489;SHT31;35382;51.484;11.476;2023-02-28T10:40:32;3.04;54.65
49489;SHT31;35382;51.484;11.476;2023-02-28T10:42:22;2.53;56.50
49489;SHT31;35382;51.484;11.476;2023-02-28T10:44:20;2.61;56.71
49489;SHT31;35382;51.484;11.476;2023-02-28T10:49:37;3.39;54.78
49489;SHT31;35382;51.484;11.476;2023-02-28T10:51:22;3.31;53.88
49489;SHT31;35382;51.484;11.476;2023-02-28T10:55:25;3.72;54.23
49489;SHT31;35382;51.484;11.476;2023-02-28T10:57:22;3.53;53.90
49489;SHT31;35382;51.484;11.476;2023-02-28T11:00:48;3.73;55.00
49489;SHT31;35382;51.484;11.476;2023-02-28T11:02:34;3.86;53.51
49489;SHT31;35382;51.484;11.476;2023-02-28T11:06:19;3.79;54.71
49489;SHT31;35382;51.484;11.476;2023-02-28T11:08:11;3.66;54.98
49489;SHT31;35382;51.484;11.476;2023-02-28T11:09:54;3.85;54.94
49489;SHT31;35382;51.484;11.476;2023-02-28T11:11:44;3.93;53.38
49489;SHT31;35382;51.484;11.476;2023-02-28T11:13:31;4.13;52.87
49489;SHT31;35382;51.484;11.476;2023-02-28T11:15:23;4.11;52.65
49489;SHT31;35382;51.484;11.476;2023-02-28T11:17:15;3.91;52.22
49489;SHT31;35382;51.484;11.476;2023-02-28T11:19:00;3.97;52.10
49489;SHT31;35382;51.484;11.476;2023-02-28T11:20:41;4.04;53.22
49489;SHT31;35382;51.484;11.476;2023-02-28T11:22:25;3.83;52.74
49489;SHT31;35382;51.484;11.476;2023-02-28T11:24:22;4.13;52.54
49489;SHT31;35382;51.484;11.476;2023-02-28T11:26:04;3.63;50.76
49489;SHT31;35382;51.484;11.476;2023-02-28T11:27:54;3.51;51.27
49489;SHT31;35382;51.484;11.476;2023-02-28T11:29:46;3.26;51.33
49489;SHT31;35382;51.484;11.476;2023-02-28T11:31:27;3.67;51.59
49489;SHT31;35382;51.484;11.476;2023-02-28T11:33:31;3.76;52.20
49489;SHT31;35382;51.484;11.476;2023-02-28T11:35:30;3.94;51.38